Time;durP1;ratioP1;P1;durP2;ratioP2;P2;SDS_P1;SDS_P2;PMS_P1;PMS_P2;Temp;Humidity;BMP_temperature;BMP_pressure;BME280_temperature;BME280_humidity;BME280_pressure;Samples;Min_cycle;Max_cycle;Signal;HPM_P1;HPM_P2
2021/12/22 00:00:07;;;;;;;20.50;9.35;;;;;5.30;102413.00;;;;5081712;28;20194;-77
2021/12/22 00:02:35;;;;;;;19.58;9.48;;;;;5.30;102416.00;;;;5075841;28;20201;-77
2021/12/22 00:05:03;;;;;;;16.95;9.32;;;;;5.30;102410.00;;;;5081359;28;20222;-77
2021/12/22 00:07:30;;;;;;;15.30;8.23;;;;;5.30;102408.00;;;;5075352;28;20246;-77
2021/12/22 00:09:57;;;;;;;18.25;8.85;;;;;5.20;102409.00;;;;5078306;28;20202;-77
2021/12/22 00:12:24;;;;;;;13.18;8.05;;;;;5.30;102404.00;;;;5081826;28;20209;-77
2021/12/22 00:14:52;;;;;;;15.77;7.80;;;;;5.20;102406.00;;;;5088257;28;20709;-77
2021/12/22 00:17:20;;;;;;;12.88;7.85;;;;;5.20;102418.00;;;;5079275;28;21040;-77
2021/12/22 00:19:47;;;;;;;13.10;6.78;;;;;5.20;102412.00;;;;5088469;28;20198;-77
2021/12/22 00:22:15;;;;;;;12.70;7.72;;;;;5.20;102417.00;;;;5082616;28;20198;-77
2021/12/22 00:24:42;;;;;;;10.25;6.72;;;;;5.20;102425.00;;;;5088934;28;20236;-78
2021/12/22 00:27:09;;;;;;;14.93;7.30;;;;;5.20;102422.00;;;;5080707;28;20210;-78
2021/12/22 00:29:37;;;;;;;13.93;7.60;;;;;5.20;102419.00;;;;5079643;28;20602;-78
2021/12/22 00:32:15;;;;;;;12.55;6.97;;;;;5.20;102421.00;;;;5088841;28;20202;-78
2021/12/22 00:34:47;;;;;;;9.75;6.90;;;;;5.20;102424.00;;;;5083665;28;20190;-78
2021/12/22 00:37:16;;;;;;;10.85;5.80;;;;;5.20;102420.00;;;;5086048;28;20201;-78
2021/12/22 00:39:44;;;;;;;12.07;7.28;;;;;5.20;102425.00;;;;5078284;28;20201;-78
2021/12/22 00:42:12;;;;;;;9.52;6.20;;;;;5.20;102416.00;;;;5084868;28;20194;-78
2021/12/22 00:44:40;;;;;;;10.70;6.88;;;;;5.20;102411.00;;;;5071799;28;20254;-78
2021/12/22 00:47:08;;;;;;;11.07;6.35;;;;;5.20;102412.00;;;;5078718;28;20201;-78
2021/12/22 00:49:35;;;;;;;13.75;7.70;;;;;5.20;102413.00;;;;5074694;28;20213;-78
2021/12/22 00:52:05;;;;;;;11.07;6.88;;;;;5.20;102416.00;;;;5088139;28;20214;-78
2021/12/22 00:54:32;;;;;;;13.25;7.03;;;;;5.20;102414.00;;;;5085350;28;20194;-78
2021/12/22 00:57:05;;;;;;;11.20;6.85;;;;;5.10;102414.00;;;;5082512;28;20194;-78
2021/12/22 00:59:33;;;;;;;11.50;6.75;;;;;5.10;102414.00;;;;5073056;28;20686;-78
2021/12/22 01:02:02;;;;;;;9.80;6.30;;;;;5.10;102409.00;;;;5086851;28;20210;-78
2021/12/22 01:04:29;;;;;;;11.57;6.47;;;;;5.10;102404.00;;;;5080578;28;20199;-78
2021/12/22 01:06:57;;;;;;;11.15;6.72;;;;;5.10;102399.00;;;;5079301;28;20230;-78
2021/12/22 01:09:25;;;;;;;11.27;6.90;;;;;5.10;102397.00;;;;5080461;28;20202;-78
2021/12/22 01:11:53;;;;;;;11.45;6.45;;;;;5.10;102403.00;;;;5076595;28;20201;-77
2021/12/22 01:14:21;;;;;;;13.90;6.85;;;;;5.10;102395.00;;;;5076844;28;20207;-76
2021/12/22 01:16:50;;;;;;;10.80;6.53;;;;;5.10;102397.00;;;;5072392;28;20200;-76
2021/12/22 01:19:26;;;;;;;11.05;6.15;;;;;5.00;102409.00;;;;5070872;28;20722;-76
2021/12/22 01:22:00;;;;;;;14.68;6.93;;;;;5.10;102398.00;;;;5074957;28;20248;-76
2021/12/22 01:24:33;;;;;;;11.90;6.97;;;;;5.00;102394.00;;;;5069367;28;20864;-76
2021/12/22 01:27:06;;;;;;;11.52;6.05;;;;;5.00;102408.00;;;;5075438;28;20769;-77
2021/12/22 01:29:35;;;;;;;11.05;6.45;;;;;5.00;102405.00;;;;5068447;28;20199;-76
2021/12/22 01:32:02;;;;;;;11.30;6.68;;;;;5.00;102400.00;;;;5078690;28;20198;-76
2021/12/22 01:34:30;;;;;;;11.00;6.68;;;;;5.00;102397.00;;;;5087072;28;20201;-77
2021/12/22 01:36:58;;;;;;;10.23;6.20;;;;;5.00;102403.00;;;;5084760;28;20205;-77
2021/12/22 01:39:25;;;;;;;12.90;6.75;;;;;5.00;102405.00;;;;5068186;28;20203;-77
2021/12/22 01:41:55;;;;;;;10.75;6.82;;;;;5.00;102403.00;;;;5068202;28;20203;-76
2021/12/22 01:44:35;;;;;;;10.70;7.00;;;;;5.00;102403.00;;;;5068140;28;20202;-76
2021/12/22 01:49:52;;;;;;;11.88;6.43;;;;;5.00;102411.00;;;;5069038;28;20583;-77
2021/12/22 01:52:20;;;;;;;12.73;6.20;;;;;5.00;102401.00;;;;5067840;28;20693;-76
2021/12/22 01:54:51;;;;;;;10.00;6.63;;;;;5.00;102406.00;;;;5068049;28;20546;-76
2021/12/22 01:57:21;;;;;;;11.27;7.05;;;;;5.00;102399.00;;;;5079770;28;20241;-76
2021/12/22 01:59:50;;;;;;;15.02;7.25;;;;;5.00;102409.00;;;;5076598;28;20199;-76
2021/12/22 02:02:18;;;;;;;13.70;7.13;;;;;5.00;102407.00;;;;5069105;28;20278;-76
2021/12/22 02:04:45;;;;;;;12.10;6.68;;;;;5.00;102406.00;;;;5068621;28;20222;-76
2021/12/22 02:07:14;;;;;;;11.55;6.60;;;;;5.00;102396.00;;;;5078550;28;20233;-76
2021/12/22 02:10:07;;;;;;;10.70;5.80;;;;;5.00;102391.00;;;;5074669;28;20817;-77
2021/12/22 02:12:41;;;;;;;11.70;6.28;;;;;5.00;102399.00;;;;5080584;28;20901;-77
2021/12/22 02:15:09;;;;;;;11.07;6.30;;;;;5.00;102401.00;;;;5067649;28;20206;-78
2021/12/22 02:17:39;;;;;;;11.05;6.30;;;;;5.00;102388.00;;;;5067945;28;21002;-78
2021/12/22 02:20:09;;;;;;;14.50;6.78;;;;;5.00;102386.00;;;;5068326;28;20271;-78
2021/12/22 02:22:39;;;;;;;10.80;6.90;;;;;5.00;102385.00;;;;5065966;28;20203;-77
2021/12/22 02:25:14;;;;;;;13.73;7.03;;;;;5.00;102395.00;;;;5070743;28;20226;-77
2021/12/22 02:27:46;;;;;;;12.50;6.85;;;;;5.00;102390.00;;;;5068272;28;20278;-77
2021/12/22 02:30:21;;;;;;;16.20;7.72;;;;;5.00;102383.00;;;;5072828;28;20194;-77
2021/12/22 02:33:20;;;;;;;11.18;6.80;;;;;5.00;102387.00;;;;5077284;28;20199;-78
2021/12/22 02:36:05;;;;;;;13.73;6.88;;;;;5.00;102378.00;;;;5074659;28;20550;-78
2021/12/22 02:38:34;;;;;;;12.32;6.68;;;;;5.00;102389.00;;;;5069278;28;20271;-78
2021/12/22 02:41:03;;;;;;;12.65;6.53;;;;;5.00;102384.00;;;;5088092;28;20192;-78
2021/12/22 02:43:33;;;;;;;12.20;6.70;;;;;5.00;102384.00;;;;5068226;28;20628;-77
2021/12/22 02:46:01;;;;;;;12.50;6.97;;;;;5.00;102395.00;;;;5072483;28;20227;-77
2021/12/22 02:48:32;;;;;;;13.10;7.05;;;;;4.90;102395.00;;;;5071934;28;20202;-78
2021/12/22 02:51:02;;;;;;;12.05;7.25;;;;;4.90;102402.00;;;;5085114;28;20217;-77
2021/12/22 02:53:38;;;;;;;13.45;7.97;;;;;4.90;102394.00;;;;5068575;28;20218;-78
2021/12/22 02:56:16;;;;;;;10.80;6.10;;;;;4.90;102397.00;;;;5075936;28;20205;-77
2021/12/22 02:58:56;;;;;;;11.23;6.40;;;;;4.90;102394.00;;;;5068670;28;20611;-77
2021/12/22 03:01:40;;;;;;;13.82;7.22;;;;;4.90;102401.00;;;;5081970;28;20251;-78
2021/12/22 03:04:13;;;;;;;10.25;5.88;;;;;4.90;102399.00;;;;5072135;28;20195;-78
2021/12/22 03:06:48;;;;;;;10.93;6.28;;;;;4.90;102400.00;;;;5070282;28;20231;-77
2021/12/22 03:09:20;;;;;;;10.77;6.53;;;;;4.90;102399.00;;;;5075271;28;20189;-77
2021/12/22 03:11:48;;;;;;;10.25;6.28;;;;;4.90;102413.00;;;;5077375;28;20590;-77
2021/12/22 03:14:16;;;;;;;12.05;6.75;;;;;4.90;102406.00;;;;5067604;28;20206;-77
2021/12/22 03:16:44;;;;;;;11.93;6.55;;;;;4.90;102412.00;;;;5078394;28;20190;-77
2021/12/22 03:19:13;;;;;;;11.07;6.18;;;;;4.90;102401.00;;;;5066953;28;20203;-77
2021/12/22 03:21:43;;;;;;;11.88;5.80;;;;;4.90;102405.00;;;;5066597;28;20200;-77
2021/12/22 03:24:12;;;;;;;10.13;5.95;;;;;4.90;102411.00;;;;5065911;28;20199;-77
2021/12/22 03:26:43;;;;;;;10.65;5.82;;;;;4.90;102407.00;;;;5073544;28;20231;-77
2021/12/22 03:29:11;;;;;;;10.35;5.28;;;;;4.90;102411.00;;;;5070134;28;20261;-77
2021/12/22 03:31:39;;;;;;;11.32;6.45;;;;;4.90;102411.00;;;;5067909;28;20195;-77
2021/12/22 03:34:07;;;;;;;14.25;6.47;;;;;4.90;102404.00;;;;5074302;28;20194;-77
2021/12/22 03:36:35;;;;;;;12.77;6.78;;;;;4.90;102407.00;;;;5074335;28;20278;-77
2021/12/22 03:39:06;;;;;;;11.90;6.38;;;;;4.80;102401.00;;;;5072098;28;20198;-77
2021/12/22 03:41:35;;;;;;;12.20;5.78;;;;;4.90;102407.00;;;;5067074;28;20202;-78
2021/12/22 03:44:02;;;;;;;12.13;6.60;;;;;4.90;102412.00;;;;5069396;28;20290;-78
2021/12/22 03:46:29;;;;;;;10.40;5.85;;;;;4.90;102396.00;;;;5070268;28;20222;-78
2021/12/22 03:48:58;;;;;;;12.20;6.47;;;;;4.90;102399.00;;;;5070550;28;20549;-78
2021/12/22 03:51:25;;;;;;;12.73;6.03;;;;;4.90;102392.00;;;;5071714;28;20199;-78
2021/12/22 03:53:52;;;;;;;9.95;6.13;;;;;4.90;102393.00;;;;5071212;28;20218;-78
2021/12/22 03:56:21;;;;;;;9.07;5.78;;;;;4.90;102393.00;;;;5071554;28;20195;-77
2021/12/22 03:58:49;;;;;;;8.40;5.95;;;;;4.90;102390.00;;;;5071037;28;20195;-78
2021/12/22 04:01:17;;;;;;;12.38;6.75;;;;;4.90;102394.00;;;;5071822;28;20967;-77
2021/12/22 04:03:47;;;;;;;11.40;5.97;;;;;4.90;102396.00;;;;5078329;28;20292;-77
2021/12/22 04:06:15;;;;;;;11.75;6.40;;;;;4.90;102394.00;;;;5087453;28;20238;-77
2021/12/22 04:08:42;;;;;;;10.88;6.35;;;;;4.90;102386.00;;;;5071366;28;20400;-78
2021/12/22 04:11:09;;;;;;;10.60;6.63;;;;;4.90;102385.00;;;;5070688;28;20191;-77
2021/12/22 04:13:38;;;;;;;9.98;5.50;;;;;4.90;102382.00;;;;5073755;28;20251;-77
2021/12/22 04:16:05;;;;;;;11.60;6.57;;;;;4.90;102386.00;;;;5088107;28;20202;-77
2021/12/22 04:18:32;;;;;;;13.35;6.90;;;;;4.90;102381.00;;;;5069744;28;20202;-77
2021/12/22 04:21:00;;;;;;;11.43;6.10;;;;;4.90;102376.00;;;;5070986;28;20626;-77
2021/12/22 04:23:27;;;;;;;10.70;6.07;;;;;4.90;102370.00;;;;5069817;28;21236;-77
2021/12/22 04:25:54;;;;;;;13.27;6.35;;;;;4.90;102363.00;;;;5070838;28;20223;-77
2021/12/22 04:28:21;;;;;;;10.80;6.38;;;;;4.90;102362.00;;;;5071211;28;20697;-77
2021/12/22 04:30:50;;;;;;;9.25;5.85;;;;;4.90;102367.00;;;;5070520;28;20199;-77
2021/12/22 04:33:19;;;;;;;10.70;6.10;;;;;4.90;102358.00;;;;5069709;28;20545;-77
2021/12/22 04:35:47;;;;;;;12.15;6.72;;;;;4.90;102360.00;;;;5070392;28;20238;-77
2021/12/22 04:38:14;;;;;;;13.93;7.05;;;;;4.90;102355.00;;;;5072009;28;20187;-77
2021/12/22 04:40:42;;;;;;;11.52;5.93;;;;;4.90;102348.00;;;;5083874;28;20210;-77
2021/12/22 04:43:09;;;;;;;11.43;6.35;;;;;4.90;102356.00;;;;5071289;28;20194;-78
2021/12/22 04:45:37;;;;;;;11.52;6.88;;;;;4.90;102349.00;;;;5081635;28;20187;-77
2021/12/22 04:48:06;;;;;;;13.27;6.75;;;;;4.90;102350.00;;;;5080164;28;20202;-78
2021/12/22 04:50:35;;;;;;;13.43;6.78;;;;;4.90;102343.00;;;;5087502;28;20190;-77
2021/12/22 04:53:08;;;;;;;11.07;6.38;;;;;4.90;102340.00;;;;5070307;28;20568;-78
2021/12/22 04:55:35;;;;;;;11.55;6.93;;;;;4.90;102330.00;;;;5069150;28;20199;-77
2021/12/22 04:58:03;;;;;;;13.60;7.45;;;;;4.90;102334.00;;;;5089805;28;20665;-77
2021/12/22 05:00:33;;;;;;;11.43;7.00;;;;;4.90;102341.00;;;;5085014;28;20191;-77
2021/12/22 05:03:01;;;;;;;14.27;6.55;;;;;4.90;102336.00;;;;5069573;28;20237;-77
2021/12/22 05:05:30;;;;;;;11.65;6.38;;;;;4.90;102336.00;;;;5069436;28;20685;-77
2021/12/22 05:07:57;;;;;;;9.98;5.85;;;;;4.90;102332.00;;;;5083556;28;20221;-77
2021/12/22 05:10:26;;;;;;;13.00;6.45;;;;;4.90;102342.00;;;;5072775;28;20190;-77
2021/12/22 05:12:54;;;;;;;12.50;6.53;;;;;4.90;102338.00;;;;5081717;28;20199;-77
2021/12/22 05:15:23;;;;;;;10.73;6.40;;;;;4.90;102335.00;;;;5072832;28;20222;-76
2021/12/22 05:20:43;;;;;;;12.07;6.18;;;;;4.90;102327.00;;;;5072901;28;20257;-76
2021/12/22 05:23:10;;;;;;;11.82;6.55;;;;;4.90;102329.00;;;;5082212;28;20251;-76
2021/12/22 05:25:38;;;;;;;13.07;6.68;;;;;4.90;102332.00;;;;5087503;28;20221;-76
2021/12/22 05:28:05;;;;;;;12.63;6.20;;;;;4.90;102330.00;;;;5085130;28;20215;-76
2021/12/22 05:30:33;;;;;;;10.70;6.50;;;;;4.90;102326.00;;;;5071188;28;20222;-78
2021/12/22 05:33:00;;;;;;;12.27;6.80;;;;;4.90;102341.00;;;;5068516;28;20213;-77
2021/12/22 05:35:27;;;;;;;12.05;6.57;;;;;4.90;102336.00;;;;5068336;28;20588;-78
2021/12/22 05:38:02;;;;;;;13.63;6.65;;;;;4.90;102338.00;;;;5068815;28;20206;-77
2021/12/22 05:40:30;;;;;;;12.52;6.00;;;;;4.90;102330.00;;;;5077199;28;20191;-77
2021/12/22 05:42:58;;;;;;;12.00;6.18;;;;;4.80;102332.00;;;;5069061;28;20599;-77
2021/12/22 05:45:26;;;;;;;12.50;6.57;;;;;4.90;102332.00;;;;5068290;28;20199;-77
2021/12/22 05:47:53;;;;;;;8.63;5.57;;;;;4.80;102341.00;;;;5078743;28;20221;-77
2021/12/22 05:50:22;;;;;;;11.77;6.35;;;;;4.80;102330.00;;;;5080477;28;20183;-77
2021/12/22 05:52:49;;;;;;;11.48;6.13;;;;;4.80;102324.00;;;;5072965;28;20207;-77
2021/12/22 05:55:18;;;;;;;11.23;5.93;;;;;4.80;102332.00;;;;5073907;28;20206;-77
2021/12/22 05:57:46;;;;;;;14.27;7.05;;;;;4.80;102325.00;;;;5083472;28;20239;-77
2021/12/22 06:00:14;;;;;;;12.18;6.70;;;;;4.80;102330.00;;;;5085368;28;20202;-76
2021/12/22 06:02:42;;;;;;;10.95;6.43;;;;;4.80;102340.00;;;;5073673;28;20672;-77
2021/12/22 06:05:10;;;;;;;13.75;6.70;;;;;4.80;102335.00;;;;5078937;28;20199;-77
2021/12/22 06:07:37;;;;;;;10.63;6.20;;;;;4.80;102342.00;;;;5071445;28;20238;-77
2021/12/22 06:10:06;;;;;;;11.80;6.25;;;;;4.80;102333.00;;;;5081867;28;20203;-76
2021/12/22 06:12:34;;;;;;;13.32;6.72;;;;;4.80;102337.00;;;;5082635;28;20657;-77
2021/12/22 06:15:02;;;;;;;12.63;6.38;;;;;4.80;102340.00;;;;5068782;28;20207;-78
2021/12/22 06:17:30;;;;;;;12.73;6.82;;;;;4.70;102341.00;;;;5068129;28;20199;-78
2021/12/22 06:19:57;;;;;;;11.65;6.40;;;;;4.70;102332.00;;;;5069250;28;20191;-77
2021/12/22 06:22:26;;;;;;;12.35;6.60;;;;;4.70;102335.00;;;;5070685;28;20201;-77
2021/12/22 06:24:53;;;;;;;12.65;6.20;;;;;4.70;102334.00;;;;5075258;28;20229;-75
2021/12/22 06:27:21;;;;;;;11.43;6.35;;;;;4.70;102329.00;;;;5086048;28;20256;-77
2021/12/22 06:29:49;;;;;;;12.90;6.53;;;;;4.70;102330.00;;;;5074818;28;20199;-76
2021/12/22 06:32:17;;;;;;;14.65;6.80;;;;;4.70;102329.00;;;;5075795;28;20182;-78
2021/12/22 06:34:46;;;;;;;13.27;6.93;;;;;4.70;102330.00;;;;5076023;28;20538;-77
2021/12/22 06:37:24;;;;;;;11.30;6.55;;;;;4.60;102328.00;;;;5075826;28;20198;-78
2021/12/22 06:39:52;;;;;;;15.27;6.35;;;;;4.70;102326.00;;;;5073608;28;20198;-78
2021/12/22 06:42:20;;;;;;;13.05;6.57;;;;;4.60;102321.00;;;;5074515;28;20282;-77
2021/12/22 06:44:48;;;;;;;14.10;6.75;;;;;4.60;102321.00;;;;5071457;28;20203;-78
2021/12/22 06:47:16;;;;;;;14.88;7.55;;;;;4.60;102324.00;;;;5074418;28;20233;-78
2021/12/22 06:49:43;;;;;;;11.95;6.80;;;;;4.60;102334.00;;;;5073303;28;20668;-78
2021/12/22 06:52:10;;;;;;;16.90;7.78;;;;;4.60;102332.00;;;;5075354;28;20218;-78
2021/12/22 06:54:38;;;;;;;12.18;6.60;;;;;4.60;102339.00;;;;5075345;28;20202;-78
2021/12/22 06:57:05;;;;;;;13.07;6.97;;;;;4.60;102347.00;;;;5074885;28;20215;-78
2021/12/22 06:59:33;;;;;;;14.00;7.03;;;;;4.60;102332.00;;;;5073925;28;20191;-78
2021/12/22 07:02:01;;;;;;;16.48;7.07;;;;;4.60;102332.00;;;;5073366;28;20205;-78
2021/12/22 07:04:29;;;;;;;13.50;7.28;;;;;4.60;102336.00;;;;5064861;28;20536;-78
2021/12/22 07:06:56;;;;;;;12.32;6.88;;;;;4.50;102330.00;;;;5073019;28;20237;-76
2021/12/22 07:09:26;;;;;;;13.02;6.80;;;;;4.50;102336.00;;;;5075377;28;20567;-77
2021/12/22 07:11:53;;;;;;;11.55;6.85;;;;;4.50;102335.00;;;;5074378;28;20195;-76
2021/12/22 07:14:21;;;;;;;15.40;7.88;;;;;4.50;102341.00;;;;5067782;28;20195;-76
2021/12/22 07:16:50;;;;;;;13.32;7.05;;;;;4.50;102339.00;;;;5077487;28;20194;-75
2021/12/22 07:19:19;;;;;;;13.52;7.35;;;;;4.50;102336.00;;;;5079755;28;20209;-78
2021/12/22 07:21:48;;;;;;;11.38;6.75;;;;;4.50;102336.00;;;;5073874;28;20572;-79
2021/12/22 07:24:16;;;;;;;21.63;12.70;;;;;4.30;102337.00;;;;5079947;28;20460;-79
2021/12/22 07:26:43;;;;;;;15.00;8.75;;;;;4.50;102339.00;;;;5083118;28;20226;-78
2021/12/22 07:29:11;;;;;;;14.02;8.30;;;;;4.50;102336.00;;;;5077924;28;20630;-78
2021/12/22 07:31:38;;;;;;;11.65;7.53;;;;;4.50;102324.00;;;;5087080;28;20195;-80
2021/12/22 07:34:12;;;;;;;11.80;6.50;;;;;4.50;102328.00;;;;5087780;28;20202;-80
2021/12/22 07:36:50;;;;;;;12.82;7.20;;;;;4.40;102325.00;;;;5087997;28;20260;-79
2021/12/22 07:39:18;;;;;;;12.50;6.28;;;;;4.50;102323.00;;;;5071352;28;20191;-80
2021/12/22 07:41:45;;;;;;;14.40;6.95;;;;;4.50;102314.00;;;;5081391;28;20195;-79
2021/12/22 07:44:12;;;;;;;14.27;6.75;;;;;4.50;102320.00;;;;5070164;28;20657;-78
2021/12/22 07:46:40;;;;;;;11.57;6.93;;;;;4.50;102318.00;;;;5077827;28;20358;-81
2021/12/22 07:49:07;;;;;;;14.18;8.30;;;;;4.50;102318.00;;;;5071650;28;20205;-78
2021/12/22 07:51:34;;;;;;;15.48;7.10;;;;;4.50;102314.00;;;;5072996;28;20199;-78
2021/12/22 07:54:03;;;;;;;14.18;7.28;;;;;4.50;102313.00;;;;5070027;28;20199;-78
2021/12/22 07:56:30;;;;;;;12.88;6.55;;;;;4.50;102310.00;;;;5075735;28;20205;-80
2021/12/22 07:58:57;;;;;;;12.15;7.07;;;;;4.50;102309.00;;;;5078027;28;20198;-77
2021/12/22 08:01:25;;;;;;;15.07;7.70;;;;;4.50;102311.00;;;;5079280;28;20201;-76
2021/12/22 08:03:52;;;;;;;12.55;7.22;;;;;4.50;102318.00;;;;5079196;28;20198;-76
2021/12/22 08:06:19;;;;;;;15.93;7.40;;;;;4.50;102314.00;;;;5073243;28;20230;-75
2021/12/22 08:08:47;;;;;;;12.98;6.85;;;;;4.60;102316.00;;;;5087778;28;20238;-75
2021/12/22 08:11:15;;;;;;;12.38;6.88;;;;;4.60;102306.00;;;;5087149;28;20203;-75
2021/12/22 08:13:43;;;;;;;15.30;6.72;;;;;4.60;102307.00;;;;5075403;28;20203;-75
2021/12/22 08:16:10;;;;;;;16.02;8.35;;;;;4.70;102311.00;;;;5079937;28;20201;-75
2021/12/22 08:18:37;;;;;;;13.40;7.65;;;;;4.70;102311.00;;;;5089258;28;20210;-77
2021/12/22 08:21:04;;;;;;;13.52;7.25;;;;;4.80;102314.00;;;;5089996;28;20198;-76
2021/12/22 08:23:32;;;;;;;12.82;7.22;;;;;4.80;102308.00;;;;5089633;28;20205;-76
2021/12/22 08:25:59;;;;;;;11.48;6.20;;;;;4.80;102308.00;;;;5090010;28;20665;-76
2021/12/22 08:28:28;;;;;;;10.05;6.68;;;;;4.90;102318.00;;;;5088031;28;20226;-76
2021/12/22 08:30:55;;;;;;;14.02;6.95;;;;;4.90;102307.00;;;;5090052;28;20210;-76
2021/12/22 08:33:25;;;;;;;13.05;6.60;;;;;4.90;102309.00;;;;5090374;28;20575;-76
2021/12/22 08:38:51;;;;;;;12.75;7.05;;;;;5.00;102307.00;;;;5087923;28;20287;-76
2021/12/22 08:41:19;;;;;;;14.05;6.63;;;;;5.00;102306.00;;;;5090463;28;20375;-76
2021/12/22 08:43:47;;;;;;;13.77;5.97;;;;;5.10;102302.00;;;;5081708;28;20247;-76
2021/12/22 08:46:15;;;;;;;15.05;6.75;;;;;5.10;102305.00;;;;5083040;28;20246;-76
2021/12/22 08:48:43;;;;;;;14.80;7.30;;;;;5.20;102304.00;;;;5082613;28;21016;-76
2021/12/22 08:51:11;;;;;;;12.18;6.28;;;;;5.20;102300.00;;;;5088803;28;21304;-76
2021/12/22 08:53:38;;;;;;;11.93;6.35;;;;;5.20;102310.00;;;;5081956;28;20218;-76
2021/12/22 08:56:06;;;;;;;10.80;5.90;;;;;5.30;102308.00;;;;5080175;28;20195;-77
2021/12/22 08:58:33;;;;;;;11.68;6.55;;;;;5.30;102316.00;;;;5083474;28;20759;-76
2021/12/22 09:01:02;;;;;;;15.40;7.80;;;;;5.40;102306.00;;;;5086525;28;20210;-76
2021/12/22 09:03:30;;;;;;;11.10;6.22;;;;;5.40;102306.00;;;;5079689;28;20197;-78
2021/12/22 09:05:57;;;;;;;10.73;6.00;;;;;5.40;102308.00;;;;5080571;28;20692;-77
2021/12/22 09:08:27;;;;;;;12.90;6.95;;;;;5.50;102313.00;;;;5075441;28;20222;-78
2021/12/22 09:10:54;;;;;;;11.07;6.25;;;;;5.50;102307.00;;;;5069796;28;20363;-77
2021/12/22 09:13:21;;;;;;;13.18;7.38;;;;;5.60;102317.00;;;;5071047;28;20202;-77
2021/12/22 09:15:49;;;;;;;14.15;6.82;;;;;5.60;102313.00;;;;5075919;28;20201;-77
2021/12/22 09:18:18;;;;;;;12.70;6.65;;;;;5.70;102305.00;;;;5074450;28;20199;-77
2021/12/22 09:20:47;;;;;;;14.88;6.47;;;;;5.70;102305.00;;;;5079403;28;20190;-77
2021/12/22 09:23:14;;;;;;;12.38;6.93;;;;;5.80;102313.00;;;;5086546;28;20382;-77
2021/12/22 09:25:41;;;;;;;12.57;7.30;;;;;5.80;102319.00;;;;5083976;28;20198;-77
2021/12/22 09:28:10;;;;;;;10.98;6.38;;;;;5.90;102311.00;;;;5076138;28;20237;-77
2021/12/22 09:30:38;;;;;;;14.63;6.40;;;;;5.90;102314.00;;;;5069522;28;20321;-77
2021/12/22 09:33:08;;;;;;;16.35;6.95;;;;;6.00;102310.00;;;;5086365;28;20209;-77
2021/12/22 09:35:36;;;;;;;11.43;6.40;;;;;6.00;102315.00;;;;5077446;28;20202;-77
2021/12/22 09:38:04;;;;;;;10.15;6.20;;;;;6.10;102304.00;;;;5076439;28;20677;-78
2021/12/22 09:40:31;;;;;;;10.88;5.93;;;;;6.10;102311.00;;;;5078272;28;20206;-78
2021/12/22 09:42:59;;;;;;;11.90;6.40;;;;;6.20;102321.00;;;;5073015;28;20582;-78
2021/12/22 09:45:27;;;;;;;11.55;6.40;;;;;6.20;102316.00;;;;5074297;28;20199;-77
2021/12/22 09:48:21;;;;;;;11.85;6.85;;;;;6.30;102317.00;;;;5083207;28;20226;-77
2021/12/22 09:50:55;;;;;;;12.40;6.22;;;;;6.30;102321.00;;;;5071932;28;20685;-78
2021/12/22 09:53:24;;;;;;;13.05;6.88;;;;;6.40;102311.00;;;;5069718;28;20213;-76
2021/12/22 09:55:52;;;;;;;13.70;6.47;;;;;6.40;102316.00;;;;5086408;28;20668;-75
2021/12/22 09:58:19;;;;;;;10.57;6.28;;;;;6.40;102316.00;;;;5084411;28;20202;-78
2021/12/22 10:00:49;;;;;;;12.00;6.47;;;;;6.50;102318.00;;;;5078935;28;20549;-78
2021/12/22 10:03:17;;;;;;;11.90;6.72;;;;;6.50;102325.00;;;;5072765;28;20553;-78
2021/12/22 10:05:46;;;;;;;11.60;6.57;;;;;6.60;102315.00;;;;5071736;28;20198;-77
2021/12/22 10:08:20;;;;;;;11.35;6.38;;;;;6.60;102323.00;;;;5072466;28;20492;-78
2021/12/22 10:13:44;;;;;;;9.13;5.60;;;;;6.70;102314.00;;;;5074638;28;20665;-78
2021/12/22 10:16:13;;;;;;;10.18;6.70;;;;;6.70;102307.00;;;;5076218;28;20211;-77
2021/12/22 10:18:40;;;;;;;10.50;6.40;;;;;6.70;102310.00;;;;5073993;28;20199;-77
2021/12/22 10:21:13;;;;;;;11.63;6.50;;;;;6.80;102305.00;;;;5074176;28;20199;-78
2021/12/22 10:23:48;;;;;;;9.48;5.93;;;;;6.80;102314.00;;;;5074827;28;20195;-78
2021/12/22 10:26:20;;;;;;;9.90;6.45;;;;;6.90;102312.00;;;;5073115;28;20197;-77
2021/12/22 10:28:52;;;;;;;10.63;6.70;;;;;6.90;102311.00;;;;5072525;28;20277;-77
2021/12/22 10:31:27;;;;;;;11.65;6.80;;;;;6.90;102304.00;;;;5072367;28;20219;-77
2021/12/22 10:33:55;;;;;;;14.05;6.78;;;;;7.00;102299.00;;;;5071947;28;20206;-78
2021/12/22 10:36:23;;;;;;;12.10;7.25;;;;;7.10;102299.00;;;;5071988;28;20346;-78
2021/12/22 10:38:54;;;;;;;10.15;6.25;;;;;7.10;102287.00;;;;5074178;28;20272;-78
2021/12/22 10:41:27;;;;;;;13.13;6.55;;;;;7.20;102289.00;;;;5074246;28;20191;-78
2021/12/22 10:43:55;;;;;;;11.93;7.00;;;;;7.20;102286.00;;;;5072739;28;20191;-78
2021/12/22 10:46:27;;;;;;;10.27;6.53;;;;;7.30;102287.00;;;;5067482;28;20210;-77
2021/12/22 10:49:18;;;;;;;11.43;7.00;;;;;7.30;102284.00;;;;5069824;28;20230;-80
2021/12/22 10:51:48;;;;;;;9.82;6.40;;;;;7.40;102277.00;;;;5070902;28;20218;-78
2021/12/22 10:54:18;;;;;;;8.82;6.03;;;;;7.40;102282.00;;;;5084092;28;20209;-78
2021/12/22 10:56:48;;;;;;;10.30;6.43;;;;;7.40;102271.00;;;;5076793;28;20205;-78
2021/12/22 10:59:17;;;;;;;9.68;5.68;;;;;7.50;102271.00;;;;5077869;28;20198;-78
2021/12/22 11:02:07;;;;;;;14.40;7.13;;;;;7.40;102278.00;;;;5074010;28;20645;-78
2021/12/22 11:04:37;;;;;;;10.30;6.97;;;;;7.50;102276.00;;;;5071779;28;20669;-79
2021/12/22 11:07:12;;;;;;;10.57;5.78;;;;;7.60;102279.00;;;;5077939;28;20306;-79
2021/12/22 11:09:40;;;;;;;9.93;5.82;;;;;7.60;102273.00;;;;5072085;28;20233;-78
2021/12/22 11:12:08;;;;;;;13.15;6.68;;;;;7.70;102271.00;;;;5077515;28;20206;-79
2021/12/22 11:14:40;;;;;;;9.63;6.43;;;;;7.70;102260.00;;;;5078013;28;20587;-79
2021/12/22 11:17:10;;;;;;;8.57;5.78;;;;;7.80;102262.00;;;;5079521;28;20195;-78
2021/12/22 11:19:48;;;;;;;9.30;6.60;;;;;7.80;102263.00;;;;5077162;28;20195;-79
2021/12/22 11:22:17;;;;;;;12.77;6.20;;;;;7.90;102262.00;;;;5071527;28;20198;-79
2021/12/22 11:24:47;;;;;;;12.82;6.70;;;;;7.90;102263.00;;;;5071593;28;20286;-78
2021/12/22 11:27:17;;;;;;;10.40;6.82;;;;;8.00;102259.00;;;;5089043;28;20202;-78
2021/12/22 11:29:48;;;;;;;9.70;6.20;;;;;8.00;102256.00;;;;5082535;28;20561;-78
2021/12/22 11:32:17;;;;;;;7.55;5.45;;;;;8.00;102260.00;;;;5077425;28;20199;-78
2021/12/22 11:34:48;;;;;;;8.23;5.78;;;;;8.00;102247.00;;;;5080103;28;20560;-78
2021/12/22 11:37:16;;;;;;;9.07;5.18;;;;;8.10;102230.00;;;;5083210;28;20206;-78
2021/12/22 11:39:45;;;;;;;12.13;6.55;;;;;8.10;102233.00;;;;5070664;28;20198;-78
2021/12/22 11:42:14;;;;;;;8.43;5.78;;;;;8.10;102231.00;;;;5081343;28;20206;-78
2021/12/22 11:44:46;;;;;;;8.00;6.05;;;;;8.10;102230.00;;;;5085491;28;20206;-79
2021/12/22 11:47:15;;;;;;;10.88;5.85;;;;;8.20;102233.00;;;;5075843;28;20212;-78
2021/12/22 11:49:55;;;;;;;10.27;6.57;;;;;8.20;102231.00;;;;5074486;28;20237;-78
2021/12/22 11:52:33;;;;;;;9.73;5.82;;;;;8.20;102224.00;;;;5076028;28;20307;-78
2021/12/22 11:55:13;;;;;;;9.93;6.80;;;;;8.20;102221.00;;;;5078886;28;20202;-78
2021/12/22 11:57:41;;;;;;;10.10;6.78;;;;;8.30;102220.00;;;;5081910;28;20201;-79
2021/12/22 12:00:26;;;;;;;12.80;6.45;;;;;8.30;102212.00;;;;5078290;28;20211;-79
2021/12/22 12:02:55;;;;;;;10.77;6.10;;;;;8.40;102208.00;;;;5083684;28;20625;-79
2021/12/22 12:05:24;;;;;;;9.30;5.78;;;;;8.40;102223.00;;;;5080350;28;20213;-79
2021/12/22 12:07:54;;;;;;;9.35;6.80;;;;;8.50;102213.00;;;;5085965;28;20227;-80
2021/12/22 12:10:41;;;;;;;10.20;6.10;;;;;8.40;102207.00;;;;5073693;28;20195;-80
2021/12/22 12:13:18;;;;;;;8.15;5.82;;;;;8.50;102204.00;;;;5088330;28;20202;-79
2021/12/22 12:22:29;;;;;;;9.38;5.68;;;;;8.60;102196.00;;;;5086201;28;20676;-79
2021/12/22 12:25:09;;;;;;;8.45;5.85;;;;;8.50;102190.00;;;;5083338;28;20311;-80
2021/12/22 12:27:44;;;;;;;9.25;6.25;;;;;8.60;102184.00;;;;5085570;28;20281;-79
2021/12/22 12:30:14;;;;;;;8.30;5.78;;;;;8.60;102182.00;;;;5082995;28;20244;-79
2021/12/22 12:33:05;;;;;;;8.02;5.35;;;;;8.60;102176.00;;;;5091137;28;20216;-79
2021/12/22 12:35:50;;;;;;;9.43;5.90;;;;;8.70;102173.00;;;;5076490;28;20199;-79
2021/12/22 12:38:19;;;;;;;9.98;5.95;;;;;8.70;102175.00;;;;5070616;28;20211;-79